createdAt,value
2022-11-12T00:02:06.979Z,102056.50
2022-11-12T00:05:27.672Z,102053.34
2022-11-12T00:08:48.073Z,102050.69
2022-11-12T00:12:08.636Z,102048.94
2022-11-12T00:15:28.946Z,102055.31
2022-11-12T00:18:50.286Z,102058.06
2022-11-12T00:22:10.569Z,102062.13
2022-11-12T00:25:30.838Z,102047.41
2022-11-12T00:28:50.873Z,102041.13
2022-11-12T00:32:12.089Z,102040.72
2022-11-12T00:35:34.584Z,102039.22
2022-11-12T00:38:54.756Z,102039.69
2022-11-12T00:42:15.095Z,102036.88
2022-11-12T00:45:34.988Z,102040.09
2022-11-12T00:48:55.351Z,102037.69
2022-11-12T00:52:17.113Z,102039.56
2022-11-12T00:55:37.330Z,102040.00
2022-11-12T00:58:57.972Z,102037.28
2022-11-12T01:02:19.945Z,102037.19
2022-11-12T01:05:40.172Z,102043.56
2022-11-12T01:09:01.912Z,102038.44
2022-11-12T01:12:22.348Z,102040.97
2022-11-12T01:15:42.968Z,102049.94
2022-11-12T01:19:06.756Z,102047.06
2022-11-12T01:22:26.790Z,102047.84
2022-11-12T01:25:48.227Z,102057.06
2022-11-12T01:29:08.519Z,102057.75
2022-11-12T01:32:28.932Z,102044.72
2022-11-12T01:35:49.081Z,102041.59
2022-11-12T01:39:09.731Z,102035.97
2022-11-12T01:42:33.031Z,102030.03
2022-11-12T01:45:53.874Z,102034.59
2022-11-12T01:49:18.368Z,102031.47
2022-11-12T01:52:45.951Z,102033.50
2022-11-12T01:56:07.442Z,102046.81
2022-11-12T01:59:37.076Z,102035.91
2022-11-12T02:02:59.805Z,102035.53
2022-11-12T02:06:21.001Z,102042.59
2022-11-12T02:09:41.658Z,102033.66
2022-11-12T02:13:21.241Z,102050.53
2022-11-12T02:16:45.048Z,102050.22
2022-11-12T02:20:09.706Z,102051.31
2022-11-12T02:23:32.317Z,102042.72
2022-11-12T02:26:55.586Z,102050.91
2022-11-12T02:30:16.148Z,102042.16
2022-11-12T02:33:36.274Z,102041.34
2022-11-12T02:36:56.696Z,102031.41
2022-11-12T02:40:18.936Z,102033.72
2022-11-12T02:43:39.928Z,102031.03
2022-11-12T02:47:00.307Z,102042.13
2022-11-12T02:50:20.559Z,102037.22
2022-11-12T02:53:40.599Z,102029.53
2022-11-12T02:57:02.448Z,102021.34
2022-11-12T03:00:22.745Z,102023.03
2022-11-12T03:03:42.916Z,102014.84
2022-11-12T03:07:03.346Z,102009.09
2022-11-12T03:10:23.931Z,102004.31
2022-11-12T03:13:45.727Z,102012.50
2022-11-12T03:17:06.066Z,102008.63
2022-11-12T03:20:27.095Z,102009.69
2022-11-12T03:23:47.110Z,102008.53
2022-11-12T03:27:07.418Z,102011.00
2022-11-12T03:30:30.794Z,102004.97
2022-11-12T03:33:51.053Z,102009.97
2022-11-12T03:37:11.282Z,102013.22
2022-11-12T03:40:32.848Z,102007.16
2022-11-12T03:43:52.945Z,101998.91
2022-11-12T03:47:14.816Z,102005.84
2022-11-12T03:50:35.308Z,102005.03
2022-11-12T03:53:55.341Z,102008.09
2022-11-12T03:57:15.626Z,102002.41
2022-11-12T04:00:35.822Z,102010.53
2022-11-12T04:03:57.616Z,102006.63
2022-11-12T04:07:36.707Z,102006.22
2022-11-12T04:10:57.231Z,102014.09
2022-11-12T04:14:17.309Z,102006.78
2022-11-12T04:17:56.285Z,102003.50
2022-11-12T04:21:36.626Z,101997.78
2022-11-12T04:25:15.496Z,101990.28
2022-11-12T04:28:35.817Z,101992.63
2022-11-12T04:31:56.250Z,101988.63
2022-11-12T04:35:18.504Z,101984.78
2022-11-12T04:38:39.904Z,101980.59
2022-11-12T04:42:19.109Z,101980.97
2022-11-12T04:45:41.420Z,101985.28
2022-11-12T04:49:01.587Z,101989.28
2022-11-12T04:52:21.697Z,101990.59
2022-11-12T04:55:43.263Z,101993.16
2022-11-12T04:59:03.741Z,101992.66
2022-11-12T05:02:24.222Z,101994.47
2022-11-12T05:05:44.290Z,101991.72
2022-11-12T05:09:04.911Z,101988.63
2022-11-12T05:12:27.040Z,101996.91
2022-11-12T05:15:47.464Z,102002.66
2022-11-12T05:19:07.966Z,101999.56
2022-11-12T05:22:43.245Z,101999.16
2022-11-12T05:26:04.426Z,101998.59
2022-11-12T05:29:25.876Z,102002.41
2022-11-12T05:32:45.905Z,102004.47
2022-11-12T05:36:06.625Z,102009.50
2022-11-12T05:39:27.153Z,102009.00
2022-11-12T05:42:47.503Z,102013.94
2022-11-12T05:46:08.951Z,102023.56
2022-11-12T05:49:30.727Z,102015.44
2022-11-12T05:52:50.913Z,102025.63
2022-11-12T05:56:11.743Z,102031.66
2022-11-12T05:59:32.253Z,102022.88
2022-11-12T06:02:57.205Z,102020.69
2022-11-12T06:06:17.775Z,102034.31
2022-11-12T06:09:37.983Z,102031.25
2022-11-12T06:12:58.508Z,102037.63
2022-11-12T06:16:18.780Z,102035.47
2022-11-12T06:19:40.447Z,102031.50
2022-11-12T06:23:00.831Z,102040.50
2022-11-12T06:26:22.029Z,102044.16
2022-11-12T06:29:42.421Z,102047.72
2022-11-12T06:33:03.013Z,102048.31
2022-11-12T06:36:24.508Z,102043.59
2022-11-12T06:39:44.944Z,102043.31
2022-11-12T06:43:05.207Z,102038.44
2022-11-12T06:46:25.348Z,102031.25
2022-11-12T06:49:45.815Z,102030.41
2022-11-12T06:53:07.706Z,102028.31
2022-11-12T06:56:27.974Z,102046.31
2022-11-12T06:59:48.343Z,102048.94
2022-11-12T07:03:09.309Z,102057.69
2022-11-12T07:06:29.463Z,102051.94
2022-11-12T07:09:51.149Z,102044.69
2022-11-12T07:13:12.432Z,102039.78
2022-11-12T07:16:33.080Z,102039.63
2022-11-12T07:19:53.616Z,102037.91
2022-11-12T07:23:13.996Z,102046.50
2022-11-12T07:26:35.871Z,102036.09
2022-11-12T07:29:56.125Z,102035.28
2022-11-12T07:33:16.343Z,102030.75
2022-11-12T07:36:36.977Z,102036.88
2022-11-12T07:39:57.503Z,102034.16
2022-11-12T07:43:19.287Z,102029.59
2022-11-12T07:46:39.439Z,102042.59
2022-11-12T07:50:00.272Z,102034.88
2022-11-12T07:53:20.719Z,102040.13
2022-11-12T07:56:41.165Z,102038.94
2022-11-12T08:00:03.936Z,102034.81
2022-11-12T08:03:24.184Z,102039.03
2022-11-12T08:06:44.568Z,102037.09
2022-11-12T08:10:06.072Z,102038.09
2022-11-12T08:13:26.677Z,102047.28
2022-11-12T08:16:48.202Z,102046.13
2022-11-12T08:20:09.712Z,102050.22
2022-11-12T08:23:30.478Z,102058.72
2022-11-12T08:26:51.093Z,102052.59
2022-11-12T08:30:12.635Z,102042.94
2022-11-12T08:33:35.080Z,102044.72
2022-11-12T08:36:55.262Z,102048.19
2022-11-12T08:40:15.747Z,102048.19
2022-11-12T08:43:36.546Z,102049.72
2022-11-12T08:46:57.111Z,102053.59
2022-11-12T08:50:19.174Z,102054.09
2022-11-12T08:53:39.262Z,102048.25
2022-11-12T08:56:59.611Z,102060.09
2022-11-12T09:00:20.072Z,102062.28
2022-11-12T09:03:40.574Z,102057.91
2022-11-12T09:07:02.386Z,102055.50
2022-11-12T09:10:22.711Z,102051.22
2022-11-12T09:13:42.891Z,102057.41
2022-11-12T09:17:03.194Z,102051.31
2022-11-12T09:20:23.891Z,102052.78
2022-11-12T09:23:45.615Z,102049.91
2022-11-12T09:27:06.015Z,102054.59
2022-11-12T09:30:26.503Z,102055.03
2022-11-12T09:33:46.747Z,102050.38
2022-11-12T09:37:07.240Z,102046.78
2022-11-12T09:40:38.697Z,102044.38
2022-11-12T09:44:01.595Z,102035.47
2022-11-12T09:47:29.591Z,102044.53
2022-11-12T09:50:56.683Z,102041.53
2022-11-12T09:54:23.982Z,102051.78
2022-11-12T09:57:45.752Z,102045.88
2022-11-12T10:01:15.099Z,102028.25
2022-11-12T10:04:56.855Z,102028.75
2022-11-12T10:08:34.934Z,102031.09
2022-11-12T10:12:31.470Z,102035.47
2022-11-12T10:16:33.523Z,102032.16
2022-11-12T10:20:04.672Z,102031.97
2022-11-12T10:23:28.428Z,102027.44
2022-11-12T10:26:49.144Z,102029.03
2022-11-12T10:30:15.551Z,102019.44
2022-11-12T10:33:37.058Z,102018.22
2022-11-12T10:37:01.433Z,102009.25
2022-11-12T10:40:31.757Z,102009.25
2022-11-12T10:44:00.285Z,102011.84
2022-11-12T10:47:24.867Z,102009.69
2022-11-12T10:50:46.350Z,102009.53
2022-11-12T10:54:21.212Z,102015.03
2022-11-12T10:57:41.961Z,102009.66
2022-11-12T11:01:04.841Z,102006.63
2022-11-12T11:04:31.308Z,102016.19
2022-11-12T11:07:53.010Z,102004.06
2022-11-12T11:11:22.791Z,102000.16
2022-11-12T11:14:44.418Z,101999.81
2022-11-12T11:18:04.516Z,102000.44
2022-11-12T11:21:49.441Z,102001.69
2022-11-12T11:25:21.236Z,101997.50
2022-11-12T11:28:49.415Z,101992.53
2022-11-12T11:32:20.243Z,101995.44
2022-11-12T11:35:52.620Z,101996.63
2022-11-12T11:39:21.884Z,101989.31
2022-11-12T11:43:00.570Z,101989.22
2022-11-12T11:46:33.656Z,101985.03
2022-11-12T11:50:15.848Z,101985.94
2022-11-12T11:53:43.997Z,101985.00
2022-11-12T11:57:11.714Z,101988.78
2022-11-12T12:00:44.563Z,101981.97
2022-11-12T12:04:33.140Z,101973.34
2022-11-12T12:08:02.225Z,101970.22
2022-11-12T12:11:30.074Z,101977.84
2022-11-12T12:14:58.183Z,101976.25
2022-11-12T12:18:31.471Z,101965.31
2022-11-12T12:21:52.913Z,101956.88
2022-11-12T12:25:18.372Z,101953.03
2022-11-12T12:28:45.280Z,101956.75
2022-11-12T12:32:11.004Z,101948.63
2022-11-12T12:35:36.481Z,101939.22
2022-11-12T12:39:09.378Z,101945.56
2022-11-12T12:42:36.798Z,101933.84
2022-11-12T12:45:58.014Z,101937.84
2022-11-12T12:49:25.541Z,101928.53
2022-11-12T12:53:04.248Z,101925.94
2022-11-12T12:56:48.055Z,101925.84
2022-11-12T13:00:31.931Z,101914.69
2022-11-12T13:03:58.809Z,101914.88
2022-11-12T13:07:37.676Z,101904.88
2022-11-12T13:10:59.598Z,101910.00
2022-11-12T13:14:51.417Z,101913.63
2022-11-12T13:18:17.171Z,101917.59
2022-11-12T13:21:37.790Z,101910.50
2022-11-12T13:25:03.400Z,101902.44
2022-11-12T13:28:25.443Z,101909.75
2022-11-12T13:31:46.339Z,101907.78
2022-11-12T13:35:22.050Z,101900.16
2022-11-12T13:38:42.534Z,101898.72
2022-11-12T13:42:30.952Z,101892.22
2022-11-12T13:45:57.536Z,101884.81
2022-11-12T13:49:17.987Z,101893.28
2022-11-12T13:52:40.578Z,101889.53
2022-11-12T13:56:01.192Z,101884.50
2022-11-12T13:59:23.287Z,101881.88
2022-11-12T14:02:48.947Z,101876.03
2022-11-12T14:06:16.269Z,101883.47
2022-11-12T14:09:52.217Z,101874.28
2022-11-12T14:13:19.884Z,101874.59
2022-11-12T14:16:50.372Z,101875.22
2022-11-12T14:20:25.700Z,101872.81
2022-11-12T14:23:47.793Z,101869.56
2022-11-12T14:27:22.478Z,101865.41
2022-11-12T14:30:44.891Z,101864.31
2022-11-12T14:34:21.625Z,101866.75
2022-11-12T14:37:48.579Z,101865.38
2022-11-12T14:41:11.604Z,101860.38
2022-11-12T14:44:34.877Z,101863.63
2022-11-12T14:47:55.355Z,101854.53
2022-11-12T14:51:16.059Z,101858.50
2022-11-12T14:54:45.582Z,101855.88
2022-11-12T14:58:06.105Z,101849.09
2022-11-12T15:05:14.449Z,101840.66
2022-11-12T15:08:36.839Z,101847.03
2022-11-12T15:11:58.679Z,101849.31
2022-11-12T15:15:22.723Z,101844.94
2022-11-12T15:18:43.560Z,101846.50
2022-11-12T15:22:04.341Z,101850.06
2022-11-12T15:25:27.077Z,101842.63
2022-11-12T15:29:00.150Z,101845.97
2022-11-12T15:32:32.504Z,101841.78
2022-11-12T15:35:57.210Z,101838.72
2022-11-12T15:39:17.811Z,101833.09
2022-11-12T15:42:39.673Z,101834.16
2022-11-12T15:46:01.944Z,101825.47
2022-11-12T15:49:22.405Z,101828.69
2022-11-12T15:52:43.237Z,101816.78
2022-11-12T15:56:03.799Z,101812.50
2022-11-12T15:59:24.180Z,101814.25
2022-11-12T16:02:47.760Z,101801.66
2022-11-12T16:06:09.886Z,101799.97
2022-11-12T16:09:30.108Z,101796.16
2022-11-12T16:12:52.168Z,101793.88
2022-11-12T16:16:12.824Z,101788.06
2022-11-12T16:19:34.490Z,101783.19
2022-11-12T16:22:55.675Z,101785.38
2022-11-12T16:26:23.100Z,101788.31
2022-11-12T16:29:43.231Z,101785.06
2022-11-12T16:33:03.812Z,101782.09
2022-11-12T16:36:25.512Z,101780.94
2022-11-12T16:39:45.873Z,101779.03
2022-11-12T16:43:06.431Z,101777.88
2022-11-12T16:46:30.671Z,101778.75
2022-11-12T16:49:50.785Z,101771.09
2022-11-12T16:53:12.649Z,101765.88
2022-11-12T16:56:33.838Z,101768.47
2022-11-12T16:59:54.102Z,101762.31
2022-11-12T17:03:14.930Z,101773.63
2022-11-12T17:06:37.102Z,101766.50
2022-11-12T17:09:58.762Z,101765.13
2022-11-12T17:13:19.041Z,101764.59
2022-11-12T17:16:39.410Z,101766.03
2022-11-12T17:19:59.811Z,101764.06
2022-11-12T17:23:20.308Z,101758.38
2022-11-12T17:26:42.183Z,101750.56
2022-11-12T17:30:02.778Z,101745.94
2022-11-12T17:33:22.813Z,101745.88
2022-11-12T17:36:43.985Z,101753.28
2022-11-12T17:40:05.234Z,101749.44
2022-11-12T17:43:27.171Z,101744.22
2022-11-12T17:46:50.693Z,101747.38
2022-11-12T17:50:10.926Z,101740.38
2022-11-12T17:53:31.134Z,101735.09
2022-11-12T17:56:51.407Z,101735.63
2022-11-12T18:00:14.811Z,101736.44
2022-11-12T18:03:38.144Z,101726.56
2022-11-12T18:06:58.461Z,101730.63
2022-11-12T18:10:19.817Z,101726.84
2022-11-12T18:13:40.180Z,101726.47
2022-11-12T18:17:02.000Z,101727.25
2022-11-12T18:20:22.484Z,101731.94
2022-11-12T18:23:44.275Z,101728.81
2022-11-12T18:27:04.925Z,101736.59
2022-11-12T18:30:25.273Z,101736.97
2022-11-12T18:33:47.190Z,101739.59
2022-11-12T18:37:07.579Z,101733.63
2022-11-12T18:40:28.253Z,101729.13
2022-11-12T18:43:48.430Z,101721.44
2022-11-12T18:47:08.589Z,101721.50
2022-11-12T18:50:30.116Z,101720.22
2022-11-12T18:53:50.184Z,101725.84
2022-11-12T18:57:10.296Z,101720.03
2022-11-12T19:00:30.373Z,101712.97
2022-11-12T19:03:53.800Z,101711.63
2022-11-12T19:07:15.363Z,101702.88
2022-11-12T19:10:36.001Z,101708.56
2022-11-12T19:13:56.429Z,101700.78
2022-11-12T19:17:16.707Z,101703.75
2022-11-12T19:20:36.740Z,101698.22
2022-11-12T19:24:00.313Z,101692.06
2022-11-12T19:27:21.066Z,101705.53
2022-11-12T19:30:41.100Z,101696.75
2022-11-12T19:34:01.951Z,101701.59
2022-11-12T19:37:33.631Z,101690.25
2022-11-12T19:40:56.028Z,101685.94
2022-11-12T19:44:16.792Z,101685.97
2022-11-12T19:47:37.056Z,101681.59
2022-11-12T19:51:02.086Z,101674.78
2022-11-12T19:54:22.160Z,101685.88
2022-11-12T19:57:45.147Z,101675.16
2022-11-12T20:01:06.424Z,101682.13
2022-11-12T20:04:27.007Z,101670.06
2022-11-12T20:07:48.069Z,101668.31
2022-11-12T20:11:08.499Z,101669.19
2022-11-12T20:14:29.931Z,101668.97
2022-11-12T20:17:50.259Z,101669.22
2022-11-12T20:21:10.815Z,101667.06
2022-11-12T20:24:31.366Z,101664.00
2022-11-12T20:27:51.455Z,101654.06
2022-11-12T20:31:14.591Z,101663.94
2022-11-12T20:34:34.863Z,101659.94
2022-11-12T20:37:54.999Z,101657.13
2022-11-12T20:41:17.423Z,101658.28
2022-11-12T20:44:37.929Z,101656.84
2022-11-12T20:47:59.735Z,101656.69
2022-11-12T20:51:24.286Z,101653.59
2022-11-12T20:54:45.443Z,101649.00
2022-11-12T20:58:05.612Z,101655.03
2022-11-12T21:01:27.591Z,101656.31
2022-11-12T21:04:49.542Z,101646.41
2022-11-12T21:08:09.725Z,101657.00
2022-11-12T21:11:30.328Z,101648.50
2022-11-12T21:14:50.899Z,101642.34
2022-11-12T21:18:11.548Z,101643.03
2022-11-12T21:21:33.092Z,101639.22
2022-11-12T21:24:53.388Z,101636.75
2022-11-12T21:28:14.054Z,101630.72
2022-11-12T21:31:34.264Z,101629.44
2022-11-12T21:34:55.652Z,101628.84
2022-11-12T21:38:16.962Z,101632.94
2022-11-12T21:41:37.067Z,101633.44
2022-11-12T21:44:57.364Z,101628.06
2022-11-12T21:48:17.522Z,101630.53
2022-11-12T21:51:37.627Z,101627.97
2022-11-12T21:54:59.568Z,101618.47
2022-11-12T21:58:19.852Z,101615.13
2022-11-12T22:01:40.613Z,101620.47
2022-11-12T22:05:00.741Z,101617.22
2022-11-12T22:08:20.811Z,101613.28
2022-11-12T22:11:42.274Z,101612.00
2022-11-12T22:15:02.834Z,101616.28
2022-11-12T22:18:23.345Z,101606.34
2022-11-12T22:21:43.750Z,101616.03
2022-11-12T22:25:04.748Z,101611.13
2022-11-12T22:28:26.588Z,101609.41
2022-11-12T22:31:47.097Z,101604.50
2022-11-12T22:35:08.267Z,101597.88
2022-11-12T22:38:32.939Z,101584.63
2022-11-12T22:41:53.178Z,101577.25
2022-11-12T22:45:15.199Z,101565.59
2022-11-12T22:48:35.492Z,101571.34
2022-11-12T22:51:55.764Z,101565.88
2022-11-12T22:55:16.267Z,101555.44
2022-11-12T22:58:36.549Z,101550.97
2022-11-12T23:01:58.242Z,101550.09
2022-11-12T23:05:18.668Z,101559.63
2022-11-12T23:08:38.766Z,101555.56
2022-11-12T23:11:59.048Z,101548.47
2022-11-12T23:15:19.578Z,101545.91
2022-11-12T23:18:41.467Z,101539.47
2022-11-12T23:22:05.327Z,101533.63
2022-11-12T23:25:27.854Z,101535.00
2022-11-12T23:28:48.259Z,101534.53
2022-11-12T23:32:08.648Z,101529.53
2022-11-12T23:35:30.354Z,101526.97
2022-11-12T23:38:51.332Z,101536.09
2022-11-12T23:42:11.506Z,101528.66
2022-11-12T23:45:36.746Z,101521.19
2022-11-12T23:48:57.646Z,101518.91
2022-11-12T23:52:19.232Z,101520.00
2022-11-12T23:55:40.536Z,101516.81
2022-11-12T23:59:00.841Z,101510.16
